DAH1004 DAAG-LFPO
Flight info
| Callsign | DAH1004 |
|---|---|
| Flight time | 1h 59m |
| Altitude | 37000 |
| Route | PECES1D MHN DCT DIBER DCT MARRI DCT OTROT DCT MOPEM DCT PIBAT |
| Aircraft | A339/H-SADE1E2E3GHIJ3J5M1P2RWXY/LB2D1 |
Departure
| Time | 2026-05-01 11:25 |
|---|---|
| Airport | Houari Boumediene Airport (DAAG) |
Arrival
| Time | 2026-05-01 13:25 |
|---|---|
| Airport | Paris-Orly Airport (LFPO) |
| Time | Latitude | Longitude | Altitude | Speed | Heading |
|---|---|---|---|---|---|
| 2026-05-01 10:48 | 36.69553 | 3.20242 | 71 ft | 0 kts | 1° |
| 2026-05-01 10:51 | 36.69560 | 3.20242 | 73 ft | 0 kts | 1° |
| 2026-05-01 11:10 | 36.69539 | 3.20242 | 68 ft | 4 kts | 1° |
| 2026-05-01 11:10 | 36.69512 | 3.20241 | 69 ft | 4 kts | 1° |
| 2026-05-01 11:10 | 36.69489 | 3.20240 | 69 ft | 3 kts | 359° |
| 2026-05-01 11:11 | 36.69467 | 3.20241 | 66 ft | 4 kts | 323° |
| 2026-05-01 11:11 | 36.69451 | 3.20258 | 65 ft | 4 kts | 282° |
| 2026-05-01 11:11 | 36.69447 | 3.20291 | 65 ft | 4 kts | 272° |
| 2026-05-01 11:11 | 36.69447 | 3.20323 | 65 ft | 4 kts | 272° |
| 2026-05-01 11:12 | 36.69446 | 3.20356 | 65 ft | 3 kts | 271° |
| 2026-05-01 11:12 | 36.69446 | 3.20360 | 65 ft | 0 kts | 271° |
| 2026-05-01 11:15 | 36.69446 | 3.20354 | 65 ft | 3 kts | 272° |
| 2026-05-01 11:15 | 36.69447 | 3.20310 | 65 ft | 5 kts | 272° |
| 2026-05-01 11:16 | 36.69448 | 3.20267 | 65 ft | 5 kts | 272° |
| 2026-05-01 11:16 | 36.69450 | 3.20211 | 67 ft | 8 kts | 272° |
| 2026-05-01 11:16 | 36.69451 | 3.20143 | 76 ft | 8 kts | 272° |
| 2026-05-01 11:16 | 36.69453 | 3.20080 | 76 ft | 7 kts | 272° |
| 2026-05-01 11:17 | 36.69455 | 3.20019 | 76 ft | 8 kts | 272° |
| 2026-05-01 11:17 | 36.69453 | 3.19973 | 76 ft | 8 kts | 263° |
| 2026-05-01 11:17 | 36.69420 | 3.19910 | 70 ft | 9 kts | 223° |
| 2026-05-01 11:17 | 36.69360 | 3.19896 | 68 ft | 9 kts | 183° |
| 2026-05-01 11:18 | 36.69310 | 3.19854 | 68 ft | 10 kts | 242° |
| 2026-05-01 11:18 | 36.69310 | 3.19764 | 76 ft | 11 kts | 272° |
| 2026-05-01 11:18 | 36.69313 | 3.19665 | 76 ft | 11 kts | 272° |
| 2026-05-01 11:18 | 36.69316 | 3.19567 | 70 ft | 11 kts | 272° |
| 2026-05-01 11:19 | 36.69318 | 3.19467 | 69 ft | 12 kts | 272° |
| 2026-05-01 11:19 | 36.69321 | 3.19367 | 67 ft | 12 kts | 272° |
| 2026-05-01 11:19 | 36.69324 | 3.19265 | 70 ft | 12 kts | 270° |
| 2026-05-01 11:19 | 36.69324 | 3.19162 | 70 ft | 12 kts | 272° |
| 2026-05-01 11:20 | 36.69327 | 3.19056 | 77 ft | 12 kts | 271° |
| 2026-05-01 11:20 | 36.69330 | 3.18939 | 74 ft | 14 kts | 271° |
| 2026-05-01 11:20 | 36.69332 | 3.18816 | 70 ft | 14 kts | 271° |
| 2026-05-01 11:20 | 36.69335 | 3.18688 | 72 ft | 15 kts | 271° |
| 2026-05-01 11:21 | 36.69338 | 3.18553 | 77 ft | 16 kts | 271° |
| 2026-05-01 11:21 | 36.69342 | 3.18411 | 77 ft | 17 kts | 272° |
| 2026-05-01 11:21 | 36.69346 | 3.18267 | 77 ft | 17 kts | 272° |
| 2026-05-01 11:21 | 36.69349 | 3.18112 | 67 ft | 18 kts | 271° |
| 2026-05-01 11:22 | 36.69353 | 3.17954 | 76 ft | 19 kts | 272° |
| 2026-05-01 11:22 | 36.69357 | 3.17794 | 71 ft | 19 kts | 272° |
| 2026-05-01 11:22 | 36.69361 | 3.17629 | 69 ft | 19 kts | 272° |
| 2026-05-01 11:22 | 36.69365 | 3.17461 | 69 ft | 20 kts | 271° |
| 2026-05-01 11:23 | 36.69370 | 3.17291 | 77 ft | 20 kts | 272° |
| 2026-05-01 11:23 | 36.69358 | 3.17128 | 69 ft | 16 kts | 238° |
| 2026-05-01 11:23 | 36.69278 | 3.17100 | 86 ft | 10 kts | 183° |
| 2026-05-01 11:23 | 36.69227 | 3.17104 | 86 ft | 5 kts | 168° |
| 2026-05-01 11:24 | 36.69205 | 3.17136 | 86 ft | 5 kts | 116° |
| 2026-05-01 11:24 | 36.69203 | 3.17188 | 86 ft | 10 kts | 92° |
| 2026-05-01 11:24 | 36.69173 | 3.18634 | 89 ft | 153 kts | 90° |
| 2026-05-01 11:25 | 36.69142 | 3.20131 | 369 ft | 180 kts | 91° |
| 2026-05-01 11:25 | 36.69578 | 3.23043 | 2046 ft | 170 kts | 46° |
| 2026-05-01 11:25 | 36.70639 | 3.23784 | 2600 ft | 186 kts | 11° |
| 2026-05-01 11:26 | 36.72001 | 3.23831 | 3088 ft | 206 kts | 357° |
| 2026-05-01 11:26 | 36.75143 | 3.24067 | 3966 ft | 246 kts | 10° |
| 2026-05-01 11:26 | 36.76871 | 3.24601 | 4486 ft | 264 kts | 16° |
| 2026-05-01 11:27 | 36.78635 | 3.25292 | 5361 ft | 266 kts | 19° |
| 2026-05-01 11:27 | 36.80377 | 3.26021 | 6120 ft | 269 kts | 19° |
| 2026-05-01 11:27 | 36.82162 | 3.26775 | 6753 ft | 273 kts | 19° |
| 2026-05-01 11:27 | 36.83975 | 3.27532 | 7358 ft | 276 kts | 18° |
| 2026-05-01 11:28 | 36.85816 | 3.28294 | 7956 ft | 280 kts | 18° |
| 2026-05-01 11:28 | 36.87688 | 3.29063 | 8579 ft | 284 kts | 18° |
| 2026-05-01 11:28 | 36.89582 | 3.29839 | 9179 ft | 288 kts | 18° |
| 2026-05-01 11:29 | 36.93454 | 3.31425 | 10389 ft | 299 kts | 18° |
| 2026-05-01 11:29 | 36.95495 | 3.32259 | 10573 ft | 318 kts | 18° |
| 2026-05-01 11:29 | 36.99907 | 3.34061 | 11119 ft | 346 kts | 18° |
| 2026-05-01 11:30 | 37.02208 | 3.35002 | 11694 ft | 348 kts | 18° |
| 2026-05-01 11:30 | 37.04525 | 3.35949 | 12266 ft | 351 kts | 18° |
| 2026-05-01 11:30 | 37.06856 | 3.36904 | 12863 ft | 353 kts | 19° |
| 2026-05-01 11:30 | 37.09201 | 3.37865 | 13423 ft | 356 kts | 19° |
| 2026-05-01 11:31 | 37.11563 | 3.38834 | 13984 ft | 359 kts | 19° |
| 2026-05-01 11:31 | 37.13944 | 3.39812 | 14487 ft | 361 kts | 19° |
| 2026-05-01 11:31 | 37.16343 | 3.40798 | 14974 ft | 364 kts | 19° |
| 2026-05-01 11:31 | 37.18758 | 3.41787 | 15475 ft | 367 kts | 18° |
| 2026-05-01 11:32 | 37.21195 | 3.42772 | 15962 ft | 370 kts | 18° |
| 2026-05-01 11:32 | 37.23654 | 3.43763 | 16429 ft | 373 kts | 18° |
| 2026-05-01 11:32 | 37.26135 | 3.44765 | 16920 ft | 375 kts | 18° |
| 2026-05-01 11:32 | 37.28629 | 3.45774 | 17399 ft | 378 kts | 18° |
| 2026-05-01 11:33 | 37.31145 | 3.46794 | 17876 ft | 381 kts | 18° |
| 2026-05-01 11:33 | 37.33681 | 3.47823 | 18357 ft | 384 kts | 18° |
| 2026-05-01 11:33 | 37.36209 | 3.48850 | 18776 ft | 387 kts | 18° |
| 2026-05-01 11:33 | 37.38786 | 3.49898 | 19181 ft | 390 kts | 18° |
| 2026-05-01 11:34 | 37.41379 | 3.50953 | 19591 ft | 394 kts | 18° |
| 2026-05-01 11:34 | 37.43996 | 3.52018 | 20051 ft | 395 kts | 18° |
| 2026-05-01 11:34 | 37.46615 | 3.53084 | 20508 ft | 397 kts | 17° |
| 2026-05-01 11:34 | 37.49258 | 3.54161 | 20901 ft | 401 kts | 17° |
| 2026-05-01 11:35 | 37.51932 | 3.55251 | 21315 ft | 404 kts | 17° |
| 2026-05-01 11:35 | 37.54621 | 3.56351 | 21726 ft | 408 kts | 17° |
| 2026-05-01 11:35 | 37.57296 | 3.57445 | 22134 ft | 411 kts | 17° |
| 2026-05-01 11:35 | 37.60032 | 3.58564 | 22547 ft | 414 kts | 17° |
| 2026-05-01 11:36 | 37.62788 | 3.59691 | 22960 ft | 418 kts | 17° |
| 2026-05-01 11:36 | 37.65571 | 3.60830 | 23375 ft | 421 kts | 17° |
| 2026-05-01 11:36 | 37.68362 | 3.61970 | 23885 ft | 421 kts | 17° |
| 2026-05-01 11:36 | 37.71160 | 3.63115 | 24270 ft | 424 kts | 17° |
| 2026-05-01 11:37 | 37.72081 | 3.63493 | 24378 ft | 425 kts | 17° |
| 2026-05-01 11:37 | 37.74732 | 3.64581 | 24713 ft | 428 kts | 17° |
| 2026-05-01 11:37 | 37.77577 | 3.65750 | 25070 ft | 430 kts | 17° |
| 2026-05-01 11:37 | 37.80435 | 3.66924 | 25433 ft | 433 kts | 17° |
| 2026-05-01 11:38 | 37.83308 | 3.68105 | 25782 ft | 436 kts | 17° |
| 2026-05-01 11:38 | 37.86200 | 3.69295 | 26136 ft | 438 kts | 17° |
| 2026-05-01 11:38 | 37.89111 | 3.70494 | 26478 ft | 441 kts | 17° |
| 2026-05-01 11:38 | 37.92039 | 3.71700 | 26837 ft | 444 kts | 17° |
| 2026-05-01 11:39 | 37.94988 | 3.72917 | 27169 ft | 446 kts | 17° |
| 2026-05-01 11:39 | 37.97950 | 3.74139 | 27490 ft | 449 kts | 17° |
| 2026-05-01 11:39 | 38.00933 | 3.75371 | 27823 ft | 452 kts | 17° |
| 2026-05-01 11:39 | 38.03936 | 3.76613 | 28145 ft | 455 kts | 17° |
| 2026-05-01 11:40 | 38.06947 | 3.77860 | 28466 ft | 457 kts | 17° |
| 2026-05-01 11:40 | 38.09985 | 3.79118 | 28777 ft | 460 kts | 17° |
| 2026-05-01 11:40 | 38.13036 | 3.80383 | 29091 ft | 462 kts | 17° |
| 2026-05-01 11:40 | 38.16069 | 3.81643 | 29431 ft | 463 kts | 16° |
| 2026-05-01 11:41 | 38.19142 | 3.82920 | 29730 ft | 466 kts | 16° |
| 2026-05-01 11:41 | 38.22234 | 3.84205 | 30016 ft | 469 kts | 16° |
| 2026-05-01 11:41 | 38.25344 | 3.85499 | 30307 ft | 471 kts | 16° |
| 2026-05-01 11:41 | 38.28473 | 3.86802 | 30581 ft | 473 kts | 16° |
| 2026-05-01 11:42 | 38.31618 | 3.88113 | 30867 ft | 475 kts | 16° |
| 2026-05-01 11:42 | 38.34765 | 3.89426 | 31157 ft | 477 kts | 16° |
| 2026-05-01 11:42 | 38.37926 | 3.90746 | 31438 ft | 479 kts | 16° |
| 2026-05-01 11:42 | 38.41101 | 3.92073 | 31718 ft | 481 kts | 16° |
| 2026-05-01 11:43 | 38.44257 | 3.93393 | 31983 ft | 483 kts | 17° |
| 2026-05-01 11:43 | 38.47473 | 3.94679 | 32245 ft | 485 kts | 13° |
| 2026-05-01 11:43 | 38.50776 | 3.95520 | 32503 ft | 484 kts | 6° |
| 2026-05-01 11:44 | 38.57479 | 3.96749 | 32941 ft | 488 kts | 6° |
| 2026-05-01 11:44 | 38.60844 | 3.97390 | 33181 ft | 488 kts | 6° |
| 2026-05-01 11:44 | 38.64211 | 3.98034 | 33412 ft | 488 kts | 6° |
| 2026-05-01 11:44 | 38.67577 | 3.98675 | 33546 ft | 490 kts | 6° |
| 2026-05-01 11:45 | 38.70953 | 3.99318 | 33681 ft | 491 kts | 6° |
| 2026-05-01 11:45 | 38.74338 | 3.99962 | 33859 ft | 491 kts | 6° |
| 2026-05-01 11:45 | 38.77716 | 4.00606 | 34046 ft | 490 kts | 6° |
| 2026-05-01 11:45 | 38.81092 | 4.01249 | 34223 ft | 490 kts | 6° |
| 2026-05-01 11:46 | 38.84416 | 4.01884 | 34428 ft | 488 kts | 6° |
| 2026-05-01 11:46 | 38.87769 | 4.02525 | 34677 ft | 486 kts | 6° |
| 2026-05-01 11:46 | 38.91111 | 4.03164 | 34826 ft | 486 kts | 6° |
| 2026-05-01 11:46 | 38.94458 | 4.03804 | 34977 ft | 485 kts | 6° |
| 2026-05-01 11:47 | 38.97801 | 4.04444 | 35135 ft | 485 kts | 6° |
| 2026-05-01 11:47 | 39.01137 | 4.05083 | 35288 ft | 485 kts | 6° |
| 2026-05-01 11:47 | 39.04476 | 4.05724 | 35441 ft | 485 kts | 6° |
| 2026-05-01 11:47 | 39.07813 | 4.06365 | 35615 ft | 484 kts | 6° |
| 2026-05-01 11:48 | 39.11139 | 4.07004 | 35789 ft | 483 kts | 6° |
| 2026-05-01 11:48 | 39.14470 | 4.07645 | 35927 ft | 483 kts | 6° |
| 2026-05-01 11:48 | 39.17755 | 4.08277 | 36083 ft | 483 kts | 6° |
| 2026-05-01 11:48 | 39.21082 | 4.08919 | 36232 ft | 482 kts | 6° |
| 2026-05-01 11:49 | 39.24411 | 4.09561 | 36392 ft | 482 kts | 6° |
| 2026-05-01 11:49 | 39.27728 | 4.10202 | 36531 ft | 482 kts | 6° |
| 2026-05-01 11:49 | 39.31044 | 4.10843 | 36751 ft | 480 kts | 6° |
| 2026-05-01 11:49 | 39.34343 | 4.11482 | 36940 ft | 479 kts | 6° |
| 2026-05-01 11:50 | 39.37638 | 4.12120 | 37079 ft | 478 kts | 6° |
| 2026-05-01 11:50 | 39.40933 | 4.12758 | 37187 ft | 479 kts | 6° |
| 2026-05-01 11:50 | 39.47466 | 4.14027 | 37198 ft | 477 kts | 6° |
| 2026-05-01 11:51 | 39.54036 | 4.15304 | 37202 ft | 477 kts | 6° |
| 2026-05-01 11:51 | 39.60618 | 4.16587 | 37204 ft | 477 kts | 6° |
| 2026-05-01 11:52 | 39.67192 | 4.17871 | 37206 ft | 477 kts | 6° |
| 2026-05-01 11:52 | 39.73761 | 4.19156 | 37219 ft | 477 kts | 7° |
| 2026-05-01 11:53 | 39.80277 | 4.20434 | 37219 ft | 476 kts | 6° |
| 2026-05-01 11:53 | 39.86834 | 4.21669 | 37212 ft | 475 kts | 3° |
| 2026-05-01 11:54 | 39.93416 | 4.22230 | 37209 ft | 474 kts | 1° |
| 2026-05-01 11:54 | 40.00003 | 4.22806 | 37211 ft | 474 kts | 2° |
| 2026-05-01 11:55 | 40.06593 | 4.23385 | 37214 ft | 474 kts | 2° |
| 2026-05-01 11:55 | 40.13159 | 4.23959 | 37212 ft | 474 kts | 2° |
| 2026-05-01 11:56 | 40.19751 | 4.24536 | 37211 ft | 475 kts | 2° |
| 2026-05-01 11:56 | 40.26348 | 4.25114 | 37207 ft | 475 kts | 2° |
| 2026-05-01 11:57 | 40.31843 | 4.25597 | 37216 ft | 475 kts | 2° |
| 2026-05-01 11:57 | 40.39514 | 4.26271 | 37220 ft | 475 kts | 2° |
| 2026-05-01 11:58 | 40.46112 | 4.26854 | 37225 ft | 474 kts | 1° |
| 2026-05-01 11:59 | 40.55995 | 4.27727 | 37220 ft | 474 kts | 1° |
| 2026-05-01 11:59 | 40.62584 | 4.28311 | 37223 ft | 474 kts | 1° |
| 2026-05-01 12:00 | 40.72423 | 4.29185 | 37223 ft | 474 kts | 1° |
| 2026-05-01 12:01 | 40.82296 | 4.30064 | 37222 ft | 474 kts | 1° |
| 2026-05-01 12:01 | 40.88883 | 4.30653 | 37225 ft | 474 kts | 1° |
| 2026-05-01 12:02 | 40.95468 | 4.31242 | 37222 ft | 474 kts | 1° |
| 2026-05-01 12:02 | 41.02007 | 4.31828 | 37224 ft | 473 kts | 1° |
| 2026-05-01 12:03 | 41.08586 | 4.32420 | 37227 ft | 474 kts | 1° |
| 2026-05-01 12:03 | 41.15169 | 4.33012 | 37224 ft | 473 kts | 1° |
| 2026-05-01 12:04 | 41.20639 | 4.33505 | 37224 ft | 473 kts | 1° |
| 2026-05-01 12:04 | 41.27217 | 4.34100 | 37228 ft | 474 kts | 1° |
| 2026-05-01 12:05 | 41.34871 | 4.34793 | 37223 ft | 474 kts | 1° |
| 2026-05-01 12:05 | 41.43641 | 4.35589 | 37231 ft | 474 kts | 1° |
| 2026-05-01 12:06 | 41.50249 | 4.36191 | 37237 ft | 474 kts | 1° |
| 2026-05-01 12:06 | 41.56828 | 4.36792 | 37240 ft | 473 kts | 1° |
| 2026-05-01 12:07 | 41.63367 | 4.37389 | 37240 ft | 473 kts | 1° |
| 2026-05-01 12:07 | 41.69940 | 4.37991 | 37248 ft | 473 kts | 1° |
| 2026-05-01 12:08 | 41.76506 | 4.38594 | 37248 ft | 472 kts | 1° |
| 2026-05-01 12:08 | 41.83056 | 4.39196 | 37250 ft | 472 kts | 1° |
| 2026-05-01 12:09 | 41.89580 | 4.39797 | 37250 ft | 472 kts | 1° |
| 2026-05-01 12:09 | 41.96131 | 4.40402 | 37258 ft | 471 kts | 1° |
| 2026-05-01 12:10 | 42.05944 | 4.41312 | 37254 ft | 471 kts | 1° |
| 2026-05-01 12:11 | 42.15717 | 4.41916 | 37262 ft | 469 kts | 359° |
| 2026-05-01 12:11 | 42.22241 | 4.42150 | 37264 ft | 469 kts | 359° |
| 2026-05-01 12:12 | 42.28761 | 4.42426 | 37266 ft | 469 kts | 359° |
| 2026-05-01 12:12 | 42.35283 | 4.42716 | 37261 ft | 469 kts | 359° |
| 2026-05-01 12:13 | 42.41808 | 4.43009 | 37267 ft | 469 kts | 359° |
| 2026-05-01 12:13 | 42.48336 | 4.43304 | 37273 ft | 469 kts | 359° |
| 2026-05-01 12:14 | 42.54858 | 4.43597 | 37265 ft | 470 kts | 359° |
| 2026-05-01 12:14 | 42.61399 | 4.43892 | 37267 ft | 470 kts | 359° |
| 2026-05-01 12:15 | 42.67949 | 4.44188 | 37276 ft | 471 kts | 359° |
| 2026-05-01 12:15 | 42.74459 | 4.44483 | 37281 ft | 471 kts | 359° |
| 2026-05-01 12:16 | 42.81027 | 4.44781 | 37286 ft | 471 kts | 360° |
| 2026-05-01 12:16 | 42.87586 | 4.45080 | 37288 ft | 472 kts | 359° |
| 2026-05-01 12:17 | 42.94149 | 4.45380 | 37282 ft | 472 kts | 360° |
| 2026-05-01 12:17 | 43.00718 | 4.45678 | 37281 ft | 472 kts | 359° |
| 2026-05-01 12:18 | 43.07285 | 4.45979 | 37287 ft | 472 kts | 360° |
| 2026-05-01 12:18 | 43.13865 | 4.46281 | 37300 ft | 472 kts | 360° |
| 2026-05-01 12:19 | 43.20398 | 4.46581 | 37293 ft | 473 kts | 0° |
| 2026-05-01 12:19 | 43.26967 | 4.46885 | 37291 ft | 472 kts | 0° |
| 2026-05-01 12:20 | 43.33549 | 4.47189 | 37286 ft | 473 kts | 0° |
| 2026-05-01 12:20 | 43.40115 | 4.47479 | 37292 ft | 472 kts | 359° |
| 2026-05-01 12:21 | 43.46676 | 4.47372 | 37290 ft | 471 kts | 357° |
| 2026-05-01 12:21 | 43.53234 | 4.47195 | 37286 ft | 471 kts | 357° |
| 2026-05-01 12:22 | 43.59743 | 4.47072 | 37298 ft | 471 kts | 358° |
| 2026-05-01 12:22 | 43.66300 | 4.46966 | 37296 ft | 470 kts | 358° |
| 2026-05-01 12:23 | 43.72846 | 4.46861 | 37295 ft | 470 kts | 358° |
| 2026-05-01 12:23 | 43.79387 | 4.46756 | 37297 ft | 470 kts | 357° |
| 2026-05-01 12:24 | 43.85924 | 4.46649 | 37293 ft | 469 kts | 357° |
| 2026-05-01 12:24 | 43.92457 | 4.46541 | 37288 ft | 469 kts | 357° |
| 2026-05-01 12:25 | 44.02233 | 4.46382 | 37280 ft | 469 kts | 357° |
| 2026-05-01 12:26 | 44.08763 | 4.46273 | 37276 ft | 469 kts | 357° |
| 2026-05-01 12:26 | 44.18576 | 4.46112 | 37278 ft | 469 kts | 357° |
| 2026-05-01 12:27 | 44.28349 | 4.45949 | 37275 ft | 469 kts | 357° |
| 2026-05-01 12:28 | 44.38147 | 4.45787 | 37274 ft | 469 kts | 357° |
| 2026-05-01 12:29 | 44.47934 | 4.45624 | 37273 ft | 468 kts | 357° |
| 2026-05-01 12:29 | 44.57676 | 4.45462 | 37274 ft | 468 kts | 357° |
| 2026-05-01 12:30 | 44.67465 | 4.45297 | 37271 ft | 468 kts | 357° |
| 2026-05-01 12:31 | 44.73985 | 4.45186 | 37269 ft | 468 kts | 357° |
| 2026-05-01 12:31 | 44.80459 | 4.45077 | 37271 ft | 468 kts | 357° |
| 2026-05-01 12:32 | 44.86968 | 4.44968 | 37268 ft | 468 kts | 357° |
| 2026-05-01 12:32 | 44.96715 | 4.44803 | 37269 ft | 467 kts | 357° |
| 2026-05-01 12:33 | 45.03230 | 4.44692 | 37263 ft | 467 kts | 357° |
| 2026-05-01 12:33 | 45.09653 | 4.44584 | 37260 ft | 467 kts | 357° |
| 2026-05-01 12:34 | 45.16162 | 4.44376 | 37252 ft | 467 kts | 355° |
| 2026-05-01 12:34 | 45.22657 | 4.43997 | 37252 ft | 467 kts | 355° |
| 2026-05-01 12:35 | 45.29167 | 4.43638 | 37264 ft | 467 kts | 355° |
| 2026-05-01 12:35 | 45.35664 | 4.43300 | 37259 ft | 468 kts | 355° |
| 2026-05-01 12:36 | 45.42127 | 4.42966 | 37253 ft | 468 kts | 355° |
| 2026-05-01 12:36 | 45.48647 | 4.42627 | 37269 ft | 468 kts | 355° |
| 2026-05-01 12:37 | 45.55162 | 4.42287 | 37260 ft | 469 kts | 355° |
| 2026-05-01 12:37 | 45.61691 | 4.41946 | 37262 ft | 469 kts | 355° |
| 2026-05-01 12:38 | 45.68216 | 4.41604 | 37261 ft | 469 kts | 355° |
| 2026-05-01 12:38 | 45.74746 | 4.41261 | 37234 ft | 470 kts | 355° |
| 2026-05-01 12:39 | 45.81247 | 4.40919 | 37236 ft | 470 kts | 355° |
| 2026-05-01 12:39 | 45.87785 | 4.40575 | 37241 ft | 470 kts | 355° |
| 2026-05-01 12:40 | 45.94334 | 4.40229 | 37227 ft | 471 kts | 355° |
| 2026-05-01 12:40 | 46.00885 | 4.39882 | 37220 ft | 471 kts | 355° |
| 2026-05-01 12:41 | 46.07446 | 4.39533 | 37224 ft | 471 kts | 355° |
| 2026-05-01 12:41 | 46.14013 | 4.39182 | 37230 ft | 472 kts | 355° |
| 2026-05-01 12:42 | 46.20552 | 4.38835 | 37231 ft | 472 kts | 355° |
| 2026-05-01 12:42 | 46.27133 | 4.38470 | 37222 ft | 473 kts | 353° |
| 2026-05-01 12:43 | 46.33629 | 4.37145 | 37208 ft | 472 kts | 347° |
| 2026-05-01 12:43 | 46.40121 | 4.35608 | 37220 ft | 473 kts | 348° |
| 2026-05-01 12:44 | 46.46591 | 4.34082 | 37231 ft | 474 kts | 348° |
| 2026-05-01 12:45 | 46.59630 | 4.30965 | 37231 ft | 476 kts | 348° |
| 2026-05-01 12:45 | 46.66174 | 4.29394 | 37230 ft | 476 kts | 348° |
| 2026-05-01 12:46 | 46.72716 | 4.27819 | 37229 ft | 476 kts | 348° |
| 2026-05-01 12:46 | 46.79206 | 4.26136 | 37237 ft | 475 kts | 343° |
| 2026-05-01 12:47 | 46.85443 | 4.23075 | 37126 ft | 472 kts | 335° |
| 2026-05-01 12:47 | 46.88483 | 4.21282 | 36858 ft | 471 kts | 335° |
| 2026-05-01 12:47 | 46.91542 | 4.19505 | 36618 ft | 474 kts | 336° |
| 2026-05-01 12:48 | 46.94626 | 4.17712 | 36372 ft | 479 kts | 336° |
| 2026-05-01 12:48 | 46.97731 | 4.15904 | 36111 ft | 478 kts | 336° |
| 2026-05-01 12:48 | 47.00825 | 4.14095 | 35857 ft | 478 kts | 336° |
| 2026-05-01 12:48 | 47.03911 | 4.12286 | 35536 ft | 476 kts | 335° |
| 2026-05-01 12:49 | 47.06945 | 4.10504 | 34980 ft | 476 kts | 335° |
| 2026-05-01 12:49 | 47.10026 | 4.08690 | 34206 ft | 478 kts | 335° |
| 2026-05-01 12:49 | 47.13127 | 4.06859 | 33127 ft | 483 kts | 336° |
| 2026-05-01 12:49 | 47.16272 | 4.04994 | 31873 ft | 492 kts | 336° |
| 2026-05-01 12:50 | 47.19474 | 4.03098 | 30820 ft | 498 kts | 337° |
| 2026-05-01 12:50 | 47.22684 | 4.01197 | 30057 ft | 496 kts | 337° |
| 2026-05-01 12:50 | 47.25878 | 3.99306 | 29374 ft | 491 kts | 337° |
| 2026-05-01 12:50 | 47.29037 | 3.97435 | 28715 ft | 486 kts | 337° |
| 2026-05-01 12:51 | 47.31107 | 3.96206 | 28273 ft | 483 kts | 337° |
| 2026-05-01 12:51 | 47.34216 | 3.94357 | 27508 ft | 481 kts | 338° |
| 2026-05-01 12:51 | 47.40379 | 3.90686 | 26224 ft | 473 kts | 338° |
| 2026-05-01 12:52 | 47.44405 | 3.88282 | 25402 ft | 468 kts | 338° |
| 2026-05-01 12:52 | 47.49423 | 3.85281 | 24375 ft | 461 kts | 338° |
| 2026-05-01 12:52 | 47.52386 | 3.83506 | 23786 ft | 457 kts | 338° |
| 2026-05-01 12:53 | 47.58221 | 3.80003 | 22462 ft | 448 kts | 338° |
| 2026-05-01 12:53 | 47.61093 | 3.78276 | 21787 ft | 444 kts | 338° |
| 2026-05-01 12:53 | 47.63944 | 3.76560 | 21120 ft | 439 kts | 338° |
| 2026-05-01 12:54 | 47.66729 | 3.74882 | 20452 ft | 436 kts | 338° |
| 2026-05-01 12:54 | 47.72298 | 3.71519 | 19142 ft | 428 kts | 337° |
| 2026-05-01 12:54 | 47.75040 | 3.69861 | 18661 ft | 422 kts | 337° |
| 2026-05-01 12:55 | 47.80469 | 3.66570 | 18243 ft | 421 kts | 338° |
| 2026-05-01 12:55 | 47.83172 | 3.64929 | 18225 ft | 421 kts | 337° |
| 2026-05-01 12:55 | 47.85885 | 3.63280 | 18227 ft | 421 kts | 337° |
| 2026-05-01 12:56 | 47.88598 | 3.61631 | 18222 ft | 421 kts | 337° |
| 2026-05-01 12:56 | 47.91313 | 3.59977 | 18229 ft | 421 kts | 337° |
| 2026-05-01 12:56 | 47.94025 | 3.58317 | 18220 ft | 421 kts | 336° |
| 2026-05-01 12:56 | 47.96574 | 3.56235 | 18133 ft | 413 kts | 324° |
| 2026-05-01 12:57 | 47.98740 | 3.53589 | 17953 ft | 392 kts | 314° |
| 2026-05-01 12:57 | 48.02444 | 3.47868 | 16523 ft | 377 kts | 313° |
| 2026-05-01 12:57 | 48.04235 | 3.45122 | 16071 ft | 374 kts | 313° |
| 2026-05-01 12:58 | 48.06066 | 3.42322 | 15807 ft | 376 kts | 313° |
| 2026-05-01 12:58 | 48.07900 | 3.39518 | 15368 ft | 378 kts | 313° |
| 2026-05-01 12:58 | 48.09730 | 3.36717 | 14903 ft | 373 kts | 313° |
| 2026-05-01 12:59 | 48.13300 | 3.31246 | 13998 ft | 365 kts | 313° |
| 2026-05-01 12:59 | 48.15075 | 3.28519 | 13519 ft | 362 kts | 313° |
| 2026-05-01 12:59 | 48.18478 | 3.23285 | 12988 ft | 336 kts | 313° |
| 2026-05-01 13:00 | 48.21598 | 3.18482 | 11923 ft | 314 kts | 313° |
| 2026-05-01 13:00 | 48.23112 | 3.16151 | 11463 ft | 309 kts | 313° |
| 2026-05-01 13:01 | 48.26124 | 3.11508 | 10947 ft | 311 kts | 313° |
| 2026-05-01 13:01 | 48.27617 | 3.09206 | 10626 ft | 304 kts | 313° |
| 2026-05-01 13:01 | 48.30557 | 3.04664 | 10247 ft | 302 kts | 313° |
| 2026-05-01 13:02 | 48.32024 | 3.02396 | 10224 ft | 303 kts | 313° |
| 2026-05-01 13:07 | 48.46795 | 2.46893 | 6707 ft | 278 kts | 271° |
| 2026-05-01 13:07 | 48.46923 | 2.43990 | 6563 ft | 277 kts | 271° |
| 2026-05-01 13:07 | 48.47050 | 2.41101 | 6421 ft | 277 kts | 271° |
| 2026-05-01 13:08 | 48.47172 | 2.38241 | 6284 ft | 276 kts | 271° |
| 2026-05-01 13:08 | 48.47295 | 2.35363 | 6152 ft | 276 kts | 271° |
| 2026-05-01 13:08 | 48.47419 | 2.32473 | 6013 ft | 275 kts | 271° |
| 2026-05-01 13:08 | 48.47538 | 2.29604 | 5890 ft | 273 kts | 271° |
| 2026-05-01 13:09 | 48.47656 | 2.26753 | 5734 ft | 273 kts | 271° |
| 2026-05-01 13:09 | 48.47777 | 2.23883 | 5626 ft | 273 kts | 271° |
| 2026-05-01 13:09 | 48.47895 | 2.21064 | 5504 ft | 273 kts | 271° |
| 2026-05-01 13:09 | 48.48009 | 2.18214 | 5385 ft | 272 kts | 271° |
| 2026-05-01 13:10 | 48.48123 | 2.15381 | 5279 ft | 271 kts | 271° |
| 2026-05-01 13:10 | 48.48241 | 2.12542 | 5166 ft | 272 kts | 271° |
| 2026-05-01 13:10 | 48.48359 | 2.09702 | 4875 ft | 271 kts | 271° |
| 2026-05-01 13:10 | 48.48474 | 2.06914 | 4664 ft | 264 kts | 271° |
| 2026-05-01 13:11 | 48.48587 | 2.04155 | 4209 ft | 262 kts | 271° |
| 2026-05-01 13:11 | 48.48698 | 2.01498 | 4034 ft | 246 kts | 271° |
| 2026-05-01 13:11 | 48.49163 | 1.99103 | 3993 ft | 233 kts | 297° |
| 2026-05-01 13:11 | 48.50253 | 1.97391 | 4011 ft | 226 kts | 327° |
| 2026-05-01 13:12 | 48.51735 | 1.96668 | 3995 ft | 227 kts | 356° |
| 2026-05-01 13:12 | 48.53280 | 1.96965 | 3988 ft | 226 kts | 13° |
| 2026-05-01 13:12 | 48.54813 | 1.97442 | 3993 ft | 222 kts | 12° |
| 2026-05-01 13:12 | 48.56318 | 1.97871 | 3998 ft | 224 kts | 11° |
| 2026-05-01 13:13 | 48.57874 | 1.98291 | 3992 ft | 227 kts | 11° |
| 2026-05-01 13:13 | 48.59408 | 1.98711 | 4010 ft | 222 kts | 11° |
| 2026-05-01 13:13 | 48.60929 | 1.99107 | 3989 ft | 223 kts | 5° |
| 2026-05-01 13:13 | 48.62443 | 1.98715 | 3984 ft | 223 kts | 333° |
| 2026-05-01 13:14 | 48.63607 | 1.97247 | 3992 ft | 217 kts | 300° |
| 2026-05-01 13:14 | 48.64389 | 1.95297 | 3988 ft | 216 kts | 294° |
| 2026-05-01 13:14 | 48.64783 | 1.93132 | 3993 ft | 215 kts | 277° |
| 2026-05-01 13:14 | 48.64925 | 1.90929 | 4000 ft | 209 kts | 267° |
| 2026-05-01 13:15 | 48.64793 | 1.88739 | 4001 ft | 210 kts | 257° |
| 2026-05-01 13:15 | 48.64528 | 1.86567 | 3995 ft | 211 kts | 257° |
| 2026-05-01 13:15 | 48.64255 | 1.84385 | 4001 ft | 210 kts | 256° |
| 2026-05-01 13:15 | 48.63762 | 1.82365 | 4017 ft | 206 kts | 231° |
| 2026-05-01 13:16 | 48.62805 | 1.80793 | 3990 ft | 205 kts | 224° |
| 2026-05-01 13:16 | 48.61678 | 1.79525 | 4019 ft | 203 kts | 199° |
| 2026-05-01 13:16 | 48.60298 | 1.79391 | 3995 ft | 201 kts | 166° |
| 2026-05-01 13:17 | 48.58706 | 1.84719 | 3998 ft | 217 kts | 77° |
| 2026-05-01 13:17 | 48.59121 | 1.86923 | 3989 ft | 219 kts | 77° |
| 2026-05-01 13:18 | 48.59749 | 1.91369 | 3992 ft | 215 kts | 83° |
| 2026-05-01 13:18 | 48.59955 | 1.93625 | 4005 ft | 217 kts | 85° |
| 2026-05-01 13:18 | 48.60130 | 1.95811 | 3989 ft | 204 kts | 86° |
| 2026-05-01 13:18 | 48.60306 | 1.97846 | 3997 ft | 187 kts | 82° |
| 2026-05-01 13:19 | 48.60697 | 1.99669 | 3895 ft | 180 kts | 68° |
| 2026-05-01 13:19 | 48.61248 | 2.01326 | 3786 ft | 175 kts | 63° |
| 2026-05-01 13:19 | 48.62431 | 2.04649 | 3656 ft | 174 kts | 64° |
| 2026-05-01 13:20 | 48.63009 | 2.06282 | 3567 ft | 175 kts | 64° |
| 2026-05-01 13:20 | 48.63578 | 2.07883 | 3510 ft | 177 kts | 65° |
| 2026-05-01 13:20 | 48.64155 | 2.09516 | 3419 ft | 170 kts | 65° |
| 2026-05-01 13:21 | 48.65271 | 2.12665 | 3094 ft | 157 kts | 64° |
| 2026-05-01 13:21 | 48.65787 | 2.14127 | 2908 ft | 163 kts | 65° |
| 2026-05-01 13:21 | 48.66315 | 2.15617 | 2694 ft | 156 kts | 65° |
| 2026-05-01 13:21 | 48.66838 | 2.17106 | 2491 ft | 160 kts | 64° |
| 2026-05-01 13:22 | 48.67355 | 2.18558 | 2296 ft | 157 kts | 64° |
| 2026-05-01 13:22 | 48.67861 | 2.19988 | 2082 ft | 153 kts | 64° |
| 2026-05-01 13:22 | 48.68362 | 2.21406 | 1860 ft | 152 kts | 64° |
| 2026-05-01 13:22 | 48.68880 | 2.22872 | 1676 ft | 162 kts | 64° |
| 2026-05-01 13:23 | 48.69390 | 2.24311 | 1443 ft | 149 kts | 64° |
| 2026-05-01 13:23 | 48.69896 | 2.25739 | 1261 ft | 155 kts | 64° |
| 2026-05-01 13:23 | 48.70394 | 2.27158 | 1079 ft | 157 kts | 63° |
| 2026-05-01 13:23 | 48.70913 | 2.28620 | 836 ft | 153 kts | 62° |
| 2026-05-01 13:24 | 48.71438 | 2.30094 | 633 ft | 161 kts | 62° |
| 2026-05-01 13:24 | 48.71949 | 2.31555 | 389 ft | 151 kts | 62° |
| 2026-05-01 13:24 | 48.72430 | 2.32922 | 302 ft | 139 kts | 61° |
| 2026-05-01 13:25 | 48.72982 | 2.34502 | 299 ft | 33 kts | 72° |
| 2026-05-01 13:25 | 48.73019 | 2.34850 | 300 ft | 32 kts | 82° |
| 2026-05-01 13:25 | 48.73036 | 2.35019 | 300 ft | 15 kts | 81° |
| 2026-05-01 13:25 | 48.73034 | 2.35182 | 301 ft | 16 kts | 109° |
| 2026-05-01 13:26 | 48.72953 | 2.35299 | 301 ft | 17 kts | 156° |
| 2026-05-01 13:26 | 48.72874 | 2.35420 | 300 ft | 16 kts | 140° |
| 2026-05-01 13:26 | 48.72768 | 2.35467 | 301 ft | 17 kts | 165° |
| 2026-05-01 13:26 | 48.72654 | 2.35517 | 300 ft | 18 kts | 163° |
| 2026-05-01 13:27 | 48.72533 | 2.35568 | 300 ft | 18 kts | 164° |
| 2026-05-01 13:27 | 48.72406 | 2.35620 | 300 ft | 19 kts | 165° |
| 2026-05-01 13:27 | 48.72368 | 2.35937 | 300 ft | 19 kts | 75° |
| 2026-05-01 13:28 | 48.72445 | 2.36350 | 301 ft | 22 kts | 75° |
| 2026-05-01 13:28 | 48.72486 | 2.36573 | 300 ft | 23 kts | 74° |
| 2026-05-01 13:29 | 48.72570 | 2.37028 | 299 ft | 23 kts | 74° |
| 2026-05-01 13:29 | 48.72690 | 2.37194 | 300 ft | 11 kts | 25° |
| 2026-05-01 13:30 | 48.72786 | 2.37241 | 299 ft | 0 kts | 343° |